createdAt,value
2023-04-19T00:00:28.815Z,30.27
2023-04-19T00:03:02.290Z,28.85
2023-04-19T00:05:48.840Z,32.63
2023-04-19T00:08:24.962Z,32.30
2023-04-19T00:11:11.844Z,33.28
2023-04-19T00:13:44.994Z,32.50
2023-04-19T00:16:31.871Z,32.17
2023-04-19T00:19:04.946Z,32.28
2023-04-19T00:21:51.888Z,32.35
2023-04-19T00:24:24.985Z,31.48
2023-04-19T00:27:11.857Z,31.45
2023-04-19T00:29:44.956Z,33.78
2023-04-19T00:32:31.932Z,34.42
2023-04-19T00:35:04.956Z,34.17
2023-04-19T00:37:51.843Z,35.17
2023-04-19T00:40:25.007Z,40.00
2023-04-19T00:43:11.890Z,38.05
2023-04-19T00:45:44.970Z,35.10
2023-04-19T00:48:24.871Z,37.00
2023-04-19T00:51:04.930Z,37.50
2023-04-19T00:53:37.937Z,33.58
2023-04-19T00:56:25.870Z,35.58
2023-04-19T00:59:00.983Z,39.92
2023-04-19T01:01:47.887Z,33.15
2023-04-19T01:04:23.147Z,36.50
2023-04-19T01:07:09.866Z,37.00
2023-04-19T01:09:47.960Z,37.55
2023-04-19T01:12:34.840Z,37.35
2023-04-19T01:15:08.965Z,41.35
2023-04-19T01:17:55.923Z,37.40
2023-04-19T01:20:35.866Z,39.50
2023-04-19T01:23:23.871Z,40.10
2023-04-19T01:25:56.968Z,38.40
2023-04-19T01:28:43.871Z,36.72
2023-04-19T01:31:17.060Z,40.60
2023-04-19T01:34:03.882Z,41.80
2023-04-19T01:36:43.867Z,38.40
2023-04-19T01:39:38.887Z,39.22
2023-04-19T01:42:25.889Z,38.05
2023-04-19T01:44:58.971Z,41.58
2023-04-19T01:47:45.920Z,40.42
2023-04-19T01:50:25.887Z,40.42
2023-04-19T01:53:19.879Z,41.90
2023-04-19T01:56:06.872Z,42.65
2023-04-19T01:58:39.984Z,39.40
2023-04-19T02:01:26.961Z,42.95
2023-04-19T02:04:06.971Z,41.47
2023-04-19T02:06:57.050Z,43.40
2023-04-19T02:09:29.984Z,38.22
2023-04-19T02:12:16.997Z,43.10
2023-04-19T02:14:49.984Z,43.00
2023-04-19T02:17:36.969Z,40.08
2023-04-19T02:20:11.098Z,40.42
2023-04-19T02:22:57.897Z,37.63
2023-04-19T02:25:31.252Z,39.75
2023-04-19T02:28:17.899Z,39.15
2023-04-19T02:30:51.015Z,37.33
2023-04-19T02:33:37.904Z,40.65
2023-04-19T02:36:17.897Z,39.95
2023-04-19T02:39:11.907Z,42.90
2023-04-19T02:41:58.905Z,40.10
2023-04-19T02:44:32.080Z,39.92
2023-04-19T02:47:18.919Z,44.17
2023-04-19T02:49:51.985Z,39.53
2023-04-19T02:52:38.911Z,38.45
2023-04-19T02:55:13.028Z,38.70
2023-04-19T02:57:59.924Z,44.75
2023-04-19T03:00:33.019Z,37.55
2023-04-19T03:03:20.056Z,36.22
2023-04-19T03:05:53.038Z,36.60
2023-04-19T03:08:39.902Z,39.95
2023-04-19T03:11:13.011Z,39.22
2023-04-19T03:13:59.911Z,39.15
2023-04-19T03:16:33.774Z,38.72
2023-04-19T03:19:20.910Z,38.25
2023-04-19T03:21:54.006Z,37.35
2023-04-19T03:24:40.916Z,36.78
2023-04-19T03:27:20.961Z,40.60
2023-04-19T03:30:07.951Z,37.53
2023-04-19T03:32:41.094Z,39.97
2023-04-19T03:35:28.904Z,37.97
2023-04-19T03:38:02.025Z,37.40
2023-04-19T03:40:48.902Z,36.53
2023-04-19T03:43:22.439Z,34.85
2023-04-19T03:46:08.937Z,34.72
2023-04-19T03:48:42.098Z,34.92
2023-04-19T03:51:28.952Z,34.45
2023-04-19T03:54:02.044Z,37.42
2023-04-19T03:56:48.960Z,33.58
2023-04-19T03:59:22.059Z,38.30
2023-04-19T04:02:09.016Z,34.40
2023-04-19T04:04:42.183Z,33.30
2023-04-19T04:07:29.922Z,32.88
2023-04-19T04:10:03.069Z,35.08
2023-04-19T04:12:49.902Z,32.53
2023-04-19T04:15:23.023Z,34.53
2023-04-19T04:18:24.910Z,31.13
2023-04-19T04:21:18.937Z,30.95
2023-04-19T04:24:08.935Z,33.97
2023-04-19T04:26:48.916Z,37.83
2023-04-19T04:29:35.967Z,36.50
2023-04-19T04:32:11.190Z,36.40
2023-04-19T04:34:57.951Z,35.47
2023-04-19T04:37:37.936Z,32.47
2023-04-19T04:40:31.970Z,35.00
2023-04-19T04:43:26.003Z,35.58
2023-04-19T04:46:20.050Z,32.22
2023-04-19T04:49:09.965Z,33.40
2023-04-19T04:51:43.050Z,30.65
2023-04-19T04:54:29.971Z,28.80
2023-04-19T04:57:04.048Z,32.88
2023-04-19T04:59:50.954Z,34.50
2023-04-19T05:02:25.778Z,33.78
2023-04-19T05:05:12.951Z,32.78
2023-04-19T05:07:52.969Z,36.00
2023-04-19T05:10:46.969Z,31.77
2023-04-19T05:13:33.972Z,25.85
2023-04-19T05:16:07.129Z,17.85
2023-04-19T05:18:53.977Z,18.10
2023-04-19T05:21:47.986Z,18.85
2023-04-19T05:24:34.965Z,20.77
2023-04-19T05:27:14.968Z,17.85
2023-04-19T05:30:02.010Z,17.60
2023-04-19T05:32:41.979Z,16.17
2023-04-19T05:35:36.005Z,15.73
2023-04-19T05:38:23.973Z,14.45
2023-04-19T05:40:57.094Z,15.40
2023-04-19T05:43:44.022Z,15.85
2023-04-19T05:46:24.000Z,15.82
2023-04-19T05:49:18.001Z,15.20
2023-04-19T05:52:04.994Z,15.25
2023-04-19T05:54:38.138Z,16.90
2023-04-19T05:57:24.965Z,15.98
2023-04-19T06:02:45.100Z,15.60
2023-04-19T06:05:18.179Z,16.70
2023-04-19T06:08:04.987Z,15.20
2023-04-19T06:10:52.608Z,16.60
2023-04-19T06:13:40.995Z,16.90
2023-04-19T06:16:15.207Z,18.10
2023-04-19T06:19:02.013Z,16.25
2023-04-19T06:21:55.980Z,17.35
2023-04-19T06:24:49.997Z,18.77
2023-04-19T06:27:39.021Z,16.40
2023-04-19T06:30:19.989Z,20.40
2023-04-19T06:33:06.997Z,20.27
2023-04-19T06:35:40.113Z,19.20
2023-04-19T06:38:27.064Z,19.85
2023-04-19T06:41:03.175Z,19.75
2023-04-19T06:43:51.191Z,19.38
2023-04-19T06:46:24.143Z,20.58
2023-04-19T06:49:11.011Z,21.10
2023-04-19T06:51:53.024Z,21.23
2023-04-19T06:54:47.025Z,19.52
2023-04-19T06:57:41.026Z,20.15
2023-04-19T07:00:29.078Z,20.40
2023-04-19T07:03:09.191Z,19.23
2023-04-19T07:06:05.013Z,19.10
2023-04-19T07:08:52.022Z,17.65
2023-04-19T07:11:25.363Z,20.55
2023-04-19T07:14:12.015Z,21.80
2023-04-19T07:16:46.270Z,21.10
2023-04-19T07:19:40.016Z,20.75
2023-04-19T07:22:34.003Z,20.85
2023-04-19T07:25:28.014Z,21.27
2023-04-19T07:28:15.019Z,22.75
2023-04-19T07:30:48.122Z,21.55
2023-04-19T07:33:35.118Z,22.63
2023-04-19T07:36:15.090Z,23.92
2023-04-19T07:39:02.030Z,25.38
2023-04-19T07:41:36.312Z,24.65
2023-04-19T07:44:23.031Z,23.83
2023-04-19T07:46:56.440Z,28.80
2023-04-19T07:49:44.045Z,27.23
2023-04-19T07:52:18.456Z,25.10
2023-04-19T07:55:05.026Z,25.17
2023-04-19T07:57:38.133Z,25.55
2023-04-19T08:00:28.036Z,28.77
2023-04-19T08:03:01.303Z,28.77
2023-04-19T08:05:48.204Z,28.15
2023-04-19T08:08:23.638Z,24.85
2023-04-19T08:11:11.086Z,22.35
2023-04-19T08:13:55.086Z,22.02
2023-04-19T08:19:27.176Z,22.63
2023-04-19T08:22:14.032Z,19.70
2023-04-19T08:24:47.175Z,21.00
2023-04-19T08:27:34.026Z,23.20
2023-04-19T08:30:08.028Z,23.50
2023-04-19T08:32:56.997Z,24.20
2023-04-19T08:35:31.292Z,24.50
2023-04-19T08:38:18.051Z,24.25
2023-04-19T08:41:06.046Z,28.30
2023-04-19T08:43:58.056Z,24.38
2023-04-19T08:46:31.202Z,26.55
2023-04-19T08:49:18.295Z,27.80
2023-04-19T08:51:52.250Z,28.35
2023-04-19T08:54:42.357Z,29.95
2023-04-19T08:57:16.292Z,26.70
2023-04-19T09:00:04.307Z,26.17
2023-04-19T09:02:58.146Z,27.08
2023-04-19T09:05:45.278Z,28.08
2023-04-19T09:08:33.377Z,26.83
2023-04-19T09:11:20.068Z,30.25
2023-04-19T09:14:00.079Z,27.13
2023-04-19T09:16:59.080Z,28.92
2023-04-19T09:20:03.054Z,26.77
2023-04-19T09:22:50.070Z,31.67
2023-04-19T09:25:49.236Z,28.98
2023-04-19T09:28:39.085Z,26.38
2023-04-19T09:31:35.748Z,33.67
2023-04-19T09:34:26.078Z,26.85
2023-04-19T09:37:09.071Z,30.33
2023-04-19T09:39:53.073Z,30.58
2023-04-19T09:45:45.127Z,32.03
2023-04-19T09:48:25.220Z,32.42
2023-04-19T09:51:10.568Z,30.98
2023-04-19T09:53:53.485Z,33.55
2023-04-19T09:56:33.103Z,36.22
2023-04-19T09:59:20.808Z,31.35
2023-04-19T10:02:07.217Z,33.63
2023-04-19T10:05:11.244Z,35.75
2023-04-19T10:07:48.241Z,32.25
2023-04-19T10:13:30.282Z,34.35
2023-04-19T10:16:20.206Z,36.97
2023-04-19T10:18:56.305Z,31.08
2023-04-19T10:21:44.095Z,31.35
2023-04-19T10:24:28.085Z,34.58
2023-04-19T10:27:18.180Z,24.63
2023-04-19T10:30:12.755Z,24.95
2023-04-19T10:33:10.163Z,23.13
2023-04-19T10:35:52.098Z,19.50
2023-04-19T10:38:44.107Z,20.88
2023-04-19T10:41:24.139Z,17.48
2023-04-19T10:44:19.117Z,18.08
2023-04-19T10:46:53.205Z,16.67
2023-04-19T10:49:51.121Z,17.23
2023-04-19T10:52:45.182Z,16.65
2023-04-19T10:55:39.104Z,14.40
2023-04-19T10:58:26.102Z,17.35
2023-04-19T11:01:52.300Z,15.20
2023-04-19T11:04:46.181Z,14.05
2023-04-19T11:07:33.140Z,14.65
2023-04-19T11:10:06.724Z,15.00
2023-04-19T11:12:53.125Z,13.75
2023-04-19T11:15:29.230Z,14.60
2023-04-19T11:18:26.279Z,13.93
2023-04-19T11:21:08.124Z,14.23
2023-04-19T11:23:57.125Z,14.95
2023-04-19T11:26:31.485Z,15.07
2023-04-19T11:29:19.117Z,14.20
2023-04-19T11:31:53.273Z,15.50
2023-04-19T11:34:44.150Z,14.50
2023-04-19T11:37:17.320Z,14.93
2023-04-19T11:40:04.897Z,16.15
2023-04-19T11:42:46.132Z,15.77
2023-04-19T11:45:48.157Z,17.92
2023-04-19T11:48:35.138Z,15.77
2023-04-19T11:51:12.309Z,16.70
2023-04-19T11:53:59.185Z,16.20
2023-04-19T11:56:39.195Z,16.27
2023-04-19T11:59:33.200Z,14.10
2023-04-19T12:02:27.286Z,18.17
2023-04-19T12:05:19.527Z,16.23
2023-04-19T12:08:13.286Z,16.05
2023-04-19T12:11:04.455Z,17.73
2023-04-19T12:13:47.144Z,17.08
2023-04-19T12:16:41.207Z,17.98
2023-04-19T12:19:28.151Z,20.80
2023-04-19T12:22:20.412Z,16.83
2023-04-19T12:25:07.186Z,16.50
2023-04-19T12:27:47.155Z,15.32
2023-04-19T12:30:42.158Z,15.07
2023-04-19T12:33:29.224Z,15.18
2023-04-19T12:36:02.262Z,14.48
2023-04-19T12:38:49.201Z,15.48
2023-04-19T12:41:29.241Z,15.00
2023-04-19T12:44:23.185Z,14.95
2023-04-19T12:47:10.147Z,14.80
2023-04-19T12:49:43.322Z,14.52
2023-04-19T12:52:30.220Z,14.07
2023-04-19T12:55:10.210Z,13.98
2023-04-19T12:58:04.241Z,15.27
2023-04-19T13:00:58.192Z,14.90
2023-04-19T13:03:45.251Z,13.50
2023-04-19T13:06:25.192Z,13.45
2023-04-19T13:09:14.918Z,15.95
2023-04-19T13:11:55.194Z,14.73
2023-04-19T13:14:42.225Z,14.02
2023-04-19T13:17:22.257Z,16.67
2023-04-19T13:20:16.214Z,15.52
2023-04-19T13:23:10.216Z,15.85
2023-04-19T13:25:57.195Z,16.00
2023-04-19T13:28:31.093Z,15.07
2023-04-19T13:31:18.280Z,15.93
2023-04-19T13:33:58.211Z,14.80
2023-04-19T13:36:52.232Z,16.02
2023-04-19T13:39:46.227Z,16.23
2023-04-19T13:42:33.207Z,16.33
2023-04-19T13:45:06.321Z,14.90
2023-04-19T13:47:53.431Z,15.77
2023-04-19T13:50:26.319Z,16.20
2023-04-19T13:53:13.236Z,15.82
2023-04-19T13:55:46.538Z,15.95
2023-04-19T13:58:33.205Z,15.80
2023-04-19T14:01:06.412Z,15.98
2023-04-19T14:03:53.366Z,16.05
2023-04-19T14:06:33.211Z,22.38
2023-04-19T14:09:20.218Z,15.82
2023-04-19T14:11:53.327Z,17.23
2023-04-19T14:14:40.304Z,17.38
2023-04-19T14:17:20.271Z,16.15
2023-04-19T14:20:14.225Z,16.73
2023-04-19T14:23:05.240Z,16.13
2023-04-19T14:25:38.576Z,16.17
2023-04-19T14:28:28.957Z,15.60
2023-04-19T14:31:09.223Z,15.93
2023-04-19T14:34:04.217Z,15.93
2023-04-19T14:36:51.650Z,17.38
2023-04-19T14:39:25.391Z,17.02
2023-04-19T14:42:12.262Z,16.60
2023-04-19T14:44:54.249Z,19.67
2023-04-19T14:47:48.323Z,19.33
2023-04-19T14:50:35.225Z,19.15
2023-04-19T14:53:08.384Z,18.27
2023-04-19T14:55:55.235Z,20.83
2023-04-19T14:58:35.231Z,19.20
2023-04-19T15:01:30.341Z,21.27
2023-04-19T15:04:17.387Z,21.08
2023-04-19T15:06:51.600Z,19.23
2023-04-19T15:09:38.320Z,18.88
2023-04-19T15:12:22.412Z,21.23
2023-04-19T15:15:16.342Z,22.08
2023-04-19T15:18:03.350Z,19.50
2023-04-19T15:20:39.762Z,20.55
2023-04-19T15:23:30.265Z,23.02
2023-04-19T15:26:10.246Z,19.38
2023-04-19T15:29:04.232Z,20.70
2023-04-19T15:31:51.280Z,18.63
2023-04-19T15:34:25.437Z,18.85
2023-04-19T15:37:13.243Z,21.45
2023-04-19T15:39:49.514Z,18.95
2023-04-19T15:42:36.249Z,17.55
2023-04-19T15:45:09.843Z,19.52
2023-04-19T15:47:56.305Z,21.48
2023-04-19T15:50:29.383Z,20.27
2023-04-19T15:53:16.287Z,17.58
2023-04-19T15:55:49.442Z,19.98
2023-04-19T15:58:36.260Z,20.02
2023-04-19T16:01:09.390Z,20.10
2023-04-19T16:03:56.678Z,18.58
2023-04-19T16:06:30.452Z,19.02
2023-04-19T16:09:17.415Z,19.75
2023-04-19T16:11:50.568Z,20.20
2023-04-19T16:14:37.297Z,19.50
2023-04-19T16:17:10.493Z,19.10
2023-04-19T16:19:57.350Z,19.05
2023-04-19T16:22:39.298Z,18.10
2023-04-19T16:25:33.288Z,17.98
2023-04-19T16:28:20.280Z,21.17
2023-04-19T16:30:53.637Z,20.30
2023-04-19T16:33:40.344Z,18.42
2023-04-19T16:36:13.391Z,21.95
2023-04-19T16:39:00.316Z,20.13
2023-04-19T16:41:33.384Z,19.80
2023-04-19T16:44:13.305Z,20.10
2023-04-19T16:46:53.393Z,19.63
2023-04-19T16:49:33.308Z,21.40
2023-04-19T16:52:14.331Z,19.42
2023-04-19T16:54:54.327Z,18.25
2023-04-19T16:57:43.305Z,19.67
2023-04-19T17:00:17.624Z,19.85
2023-04-19T17:03:04.485Z,19.73
2023-04-19T17:05:37.397Z,19.63
2023-04-19T17:08:24.276Z,19.38
2023-04-19T17:10:57.398Z,19.40
2023-04-19T17:13:45.296Z,19.25
2023-04-19T17:16:19.516Z,18.80
2023-04-19T17:19:07.302Z,24.40
2023-04-19T17:21:40.490Z,24.52
2023-04-19T17:24:27.339Z,22.33
2023-04-19T17:27:01.425Z,23.17
2023-04-19T17:29:48.310Z,19.65
2023-04-19T17:32:21.385Z,21.60
2023-04-19T17:35:08.295Z,22.10
2023-04-19T17:37:41.435Z,18.70
2023-04-19T17:40:29.696Z,19.60
2023-04-19T17:43:10.352Z,19.13
2023-04-19T17:46:04.345Z,20.10
2023-04-19T17:48:53.340Z,23.02
2023-04-19T17:51:35.339Z,24.20
2023-04-19T17:54:30.328Z,25.90
2023-04-19T17:57:18.334Z,25.60
2023-04-19T17:59:51.576Z,24.02
2023-04-19T18:02:38.492Z,26.13
2023-04-19T18:05:13.586Z,30.52
2023-04-19T18:08:00.344Z,28.15
2023-04-19T18:10:40.360Z,27.27
2023-04-19T18:13:27.345Z,33.53
2023-04-19T18:16:07.358Z,28.73
2023-04-19T18:19:01.357Z,25.75
2023-04-19T18:21:55.342Z,22.45
2023-04-19T18:24:50.348Z,22.23
2023-04-19T18:27:38.361Z,23.23
2023-04-19T18:30:19.349Z,19.80
2023-04-19T18:33:07.387Z,20.02
2023-04-19T18:35:47.348Z,22.25
2023-04-19T18:38:34.395Z,37.70
2023-04-19T18:41:07.483Z,30.33
2023-04-19T18:46:33.395Z,26.38
2023-04-19T18:49:20.389Z,31.88
2023-04-19T18:51:53.521Z,38.67
2023-04-19T18:54:40.323Z,34.67
2023-04-19T18:57:23.240Z,30.15
2023-04-19T19:00:17.394Z,34.38
2023-04-19T19:02:57.442Z,44.83
2023-04-19T19:05:51.471Z,40.58
2023-04-19T19:08:38.392Z,39.55
2023-04-19T19:11:37.389Z,33.78
2023-04-19T19:14:21.485Z,37.45
2023-04-19T19:17:01.419Z,44.70
2023-04-19T19:19:57.409Z,39.35
2023-04-19T19:22:52.344Z,44.53
2023-04-19T19:25:39.345Z,53.05
2023-04-19T19:28:12.566Z,44.65
2023-04-19T19:30:59.441Z,46.28
2023-04-19T19:33:32.987Z,38.72
2023-04-19T19:36:20.368Z,35.53
2023-04-19T19:38:53.443Z,32.47
2023-04-19T19:42:04.661Z,27.60
2023-04-19T19:44:40.347Z,31.48
2023-04-19T19:47:34.531Z,36.38
2023-04-19T19:52:57.488Z,30.88
2023-04-19T19:55:44.350Z,41.60
2023-04-19T19:58:42.576Z,33.00
2023-04-19T20:01:24.388Z,33.97
2023-04-19T20:04:04.544Z,33.80
2023-04-19T20:07:28.891Z,28.60
2023-04-19T20:10:05.411Z,32.22
2023-04-19T20:12:38.563Z,30.00
2023-04-19T20:15:25.389Z,33.25
2023-04-19T20:17:58.564Z,34.53
2023-04-19T20:20:45.385Z,31.95
2023-04-19T20:23:39.395Z,32.05
2023-04-19T20:26:33.418Z,32.33
2023-04-19T20:29:21.422Z,29.88
2023-04-19T20:31:54.564Z,35.53
2023-04-19T20:34:41.403Z,34.42
2023-04-19T20:37:14.450Z,36.30
2023-04-19T20:40:04.377Z,32.25
2023-04-19T20:42:44.382Z,32.13
2023-04-19T20:45:32.420Z,35.65
2023-04-19T20:48:06.132Z,32.75
2023-04-19T20:50:53.395Z,30.65
2023-04-19T20:53:33.400Z,34.25
2023-04-19T20:56:20.387Z,33.25
2023-04-19T20:59:00.385Z,31.27
2023-04-19T21:01:48.410Z,33.03
2023-04-19T21:04:21.662Z,35.92
2023-04-19T21:07:08.384Z,34.95
2023-04-19T21:09:41.497Z,36.42
2023-04-19T21:12:28.388Z,34.55
2023-04-19T21:15:01.559Z,36.15
2023-04-19T21:17:48.406Z,37.10
2023-04-19T21:20:21.515Z,36.25
2023-04-19T21:23:15.435Z,39.88
2023-04-19T21:26:11.403Z,37.38
2023-04-19T21:29:05.403Z,36.58
2023-04-19T21:31:52.482Z,36.08
2023-04-19T21:34:25.495Z,40.03
2023-04-19T21:37:12.418Z,40.25
2023-04-19T21:39:45.636Z,37.25
2023-04-19T21:42:32.412Z,36.35
2023-04-19T21:45:05.853Z,36.28
2023-04-19T21:47:52.434Z,37.22
2023-04-19T21:50:32.433Z,37.97
2023-04-19T21:53:26.429Z,33.72
2023-04-19T21:56:20.436Z,36.55
2023-04-19T21:59:07.429Z,37.63
2023-04-19T22:01:47.448Z,37.90
2023-04-19T22:04:37.433Z,36.58
2023-04-19T22:07:18.417Z,33.72
2023-04-19T22:10:07.459Z,37.13
2023-04-19T22:12:48.292Z,37.85
2023-04-19T22:15:32.387Z,38.08
2023-04-19T22:18:12.487Z,39.75
2023-04-19T22:20:45.538Z,37.13
2023-04-19T22:23:32.431Z,38.65
2023-04-19T22:26:05.610Z,40.10
2023-04-19T22:28:52.462Z,41.60
2023-04-19T22:31:26.170Z,44.55
2023-04-19T22:34:12.423Z,41.50
2023-04-19T22:36:45.560Z,40.08
2023-04-19T22:39:33.425Z,42.80
2023-04-19T22:42:06.551Z,40.13
2023-04-19T22:44:53.432Z,38.95
2023-04-19T22:47:33.463Z,41.15
2023-04-19T22:50:20.444Z,40.25
2023-04-19T22:53:00.415Z,39.10
2023-04-19T22:55:54.427Z,39.30
2023-04-19T22:58:41.422Z,38.03
2023-04-19T23:01:14.620Z,40.92
2023-04-19T23:04:01.429Z,40.45
2023-04-19T23:06:34.575Z,37.03
2023-04-19T23:09:21.438Z,40.42
2023-04-19T23:11:54.941Z,40.10
2023-04-19T23:14:41.448Z,43.38
2023-04-19T23:17:15.950Z,40.80
2023-04-19T23:20:02.474Z,37.55
2023-04-19T23:22:42.456Z,38.00
2023-04-19T23:25:36.440Z,42.88
2023-04-19T23:28:23.452Z,41.90
2023-04-19T23:30:56.570Z,40.38
2023-04-19T23:33:36.445Z,38.80
2023-04-19T23:36:16.478Z,40.20
2023-04-19T23:38:49.560Z,34.92
2023-04-19T23:41:36.467Z,37.58
2023-04-19T23:44:09.557Z,35.17
2023-04-19T23:46:56.592Z,36.70
2023-04-19T23:49:29.566Z,34.97
2023-04-19T23:52:16.484Z,33.95
2023-04-19T23:54:49.622Z,34.05
2023-04-19T23:57:36.479Z,34.80
